Data for 07/28/2006

Time Sea-Level Adjusted Pressure Absolute Pressure Temperature Relative Humidity Dew Point   
(mb) (inHg) (mb) (inHg) (C) (F) (%) (C) (F)
00:05 1017 30.03 846 24.98 21.7 71.1 34 5.3 41.6
00:10 1017 30.03 846 24.98 21.3 70.4 35 5.5 41.8
00:15 1017 30.03 846 24.98 21 69.7 37 5.8 42.4
00:20 1017 30.03 846 24.98 21.1 69.9 37 6.1 43
00:25 1017 30.03 846 24.98 21.5 70.7 34 5.2 41.4
00:30 1017 30.03 846 24.98 22.2 71.9 34 5.8 42.5
00:35 1017 30.03 846 24.98 21.7 71.1 34 5.3 41.5
00:40 1017 30.03 846 24.98 21.8 71.2 34 5.6 42.1
00:45 1017 30.03 847 25.01 22.3 72.1 32 5.2 41.3
00:50 1017 30.03 847 25.01 22.3 72.1 34 5.7 42.2
00:55 1017 30.03 847 25.01 21.4 70.5 38 6.5 43.7
01:00 1018 30.06 847 25.01 20.6 69 41 7.1 44.7
01:05 1018 30.06 847 25.01 20.1 68.1 40 6.3 43.4
01:10 1018 30.06 847 25.01 20.1 68.1 39 5.9 42.6
01:15 1018 30.06 847 25.01 20.9 69.5 34 4.6 40.3
01:20 1018 30.06 847 25.01 21.8 71.3 33 4.8 40.7
01:25 1018 30.06 847 25.01 22 71.6 34 5.8 42.4
01:30 1018 30.06 847 25.01 22 71.6 33 5.1 41.2
01:35 1018 30.06 847 25.01 21.7 71.1 35 5.7 42.3
01:40 1018 30.06 847 25.01 21.4 70.5 34 5.1 41.2
01:45 1018 30.06 847 25.01 21.8 71.3 33 5 41.1
01:50 1018 30.06 847 25.01 21.9 71.5 36 6.3 43.3
01:55 1018 30.06 847 25.01 21.5 70.7 39 7.1 44.7
02:00 1018 30.06 847 25.01 21.3 70.3 35 5.4 41.7
02:05 1018 30.06 847 25.01 21.1 69.9 43 8.1 46.6
02:10 1018 30.06 847 25.01 20.7 69.3 37 5.6 42.1
02:15 1018 30.06 847 25.01 20.5 69 39 6.4 43.6
02:20 1018 30.06 847 25.01 20.1 68.2 38 5.5 41.8
02:25 1018 30.06 847 25.01 20.4 68.6 36 4.9 40.8
02:30 1018 30.06 847 25.01 20.5 69 36 5.3 41.5
02:35 1018 30.06 847 25.01 20.6 69 34 4.5 40
02:40 1018 30.06 847 25.01 20.8 69.5 33 4.3 39.7
02:45 1018 30.06 847 25.01 20.9 69.7 34 4.5 40.1
02:50 1018 30.06 847 25.01 20.7 69.2 34 4.4 40
02:55 1018 30.06 847 25.01 20.4 68.7 39 6 42.7
03:00 1018 30.06 847 25.01 20.3 68.6 35 4.5 40
03:05 1018 30.06 847 25.01 20.3 68.6 35 4.5 40
03:10 1018 30.06 847 25.01 20.5 69 34 4.4 40
03:15 1018 30.06 847 25.01 20.6 69.2 33 4 39.2
03:20 1018 30.06 847 25.01 20.8 69.5 34 4.4 39.9
03:25 1018 30.06 847 25.01 20.5 68.9 36 4.9 40.8
03:30 1018 30.06 847 25.01 19.9 67.8 38 5.2 41.3
03:35 1018 30.06 847 25.01 19.7 67.5 41 6.2 43.2
03:40 1018 30.06 847 25.01 20.1 68.1 35 4.3 39.7
03:45 1018 30.06 847 25.01 20.4 68.7 33 3.7 38.7
03:50 1018 30.06 847 25.01 20.9 69.6 33 4.1 39.4
03:55 1018 30.06 847 25.01 21 69.7 33 4.2 39.5
04:00 1018 30.06 847 25.01 20.6 69.2 35 4.7 40.5
04:05 1018 30.06 847 25.01 20.4 68.7 34 4.1 39.4
04:10 1018 30.06 847 25.01 20 68 35 4.3 39.8
04:15 1018 30.06 847 25.01 19.7 67.5 36 4.2 39.5
04:20 1018 30.06 847 25.01 19.6 67.3 36 4.2 39.6
04:25 1018 30.06 847 25.01 19.5 67.1 35 3.9 39
04:30 1018 30.06 847 25.01 19.7 67.5 35 4 39.2
04:35 1018 30.06 847 25.01 19.7 67.4 36 4.5 40
04:40 1018 30.06 847 25.01 19.7 67.5 35 3.9 39
04:45 1018 30.06 847 25.01 19.8 67.7 35 4.1 39.4
04:50 1018 30.06 847 25.01 19.7 67.4 36 4.3 39.7
04:55 1018 30.06 847 25.01 19.6 67.2 35 3.9 39
05:00 1018 30.06 847 25.01 19.4 66.8 38 4.9 40.9
05:05 1018 30.06 847 25.01 19 66.2 42 6 42.8
05:10 1018 30.06 847 25.01 18.9 65.9 43 6.1 42.9
05:15 1018 30.06 847 25.01 18.1 64.6 50 7.6 45.7
05:20 1018 30.06 847 25.01 18.3 64.9 42 5.3 41.6
05:25 1018 30.06 847 25.01 18.1 64.5 43 5.5 41.9
05:30 1018 30.06 847 25.01 18.1 64.6 41 4.7 40.5
05:35 1018 30.06 847 25.01 18.4 65.2 43 5.7 42.2
05:40 1018 30.06 847 25.01 18 64.4 40 4.5 40.1
05:45 1018 30.06 847 25.01 18.1 64.6 43 5.5 41.9
05:50 1018 30.06 847 25.01 17.7 63.8 42 4.8 40.6
05:55 1018 30.06 847 25.01 18.2 64.7 39 4 39.2
06:00 1018 30.06 847 25.01 18.4 65.2 39 4.2 39.6
06:05 1018 30.06 847 25.01 18.5 65.2 38 4.1 39.3
06:10 1018 30.06 847 25.01 18.5 65.2 43 6 42.7
06:15 1018 30.06 847 25.01 18.2 64.7 39 4.1 39.4
06:20 1018 30.06 847 25.01 18.3 64.9 39 4.1 39.3
06:25 1018 30.06 847 25.01 17.9 64.2 39 4 39.2
06:30 1018 30.06 847 25.01 18.2 64.7 39 4.2 39.6
06:35 1018 30.06 847 25.01 18.2 64.7 38 3.8 38.8
06:40 1018 30.06 847 25.01 18.4 65.2 38 4 39.2
06:45 1018 30.06 847 25.01 18.2 64.8 40 4.5 40.1
06:50 1018 30.06 847 25.01 17.8 64 42 4.7 40.4
06:55 1018 30.06 847 25.01 17.8 64.1 47 6.4 43.5
07:00 1018 30.06 847 25.01 17.9 64.2 42 4.8 40.7
07:05 1018 30.06 847 25.01 17.7 63.8 42 4.7 40.5
07:10 1018 30.06 847 25.01 17.9 64.1 45 6 42.8
07:15 1018 30.06 847 25.01 18.1 64.5 42 5.1 41.1
07:20 1018 30.06 847 25.01 18.1 64.5 43 5.3 41.5
07:25 1018 30.06 847 25.01 18.2 64.7 42 5.3 41.5
07:30 1018 30.06 847 25.01 18.6 65.4 40 5 41
07:35 1018 30.06 847 25.01 18.7 65.6 40 5 41
07:40 1018 30.06 847 25.01 18.9 66 39 4.6 40.3
07:45 1018 30.06 847 25.01 19.2 66.5 39 5.1 41.3
07:50 1018 30.06 847 25.01 19.5 67 39 5.1 41.3
07:55 1018 30.06 847 25.01 19.8 67.7 39 5.8 42.4
08:00 1018 30.06 847 25.01 20.1 68.2 38 5.4 41.8
08:05 1018 30.06 847 25.01 20.4 68.8 38 5.7 42.2
08:10 1018 30.06 848 25.04 21 69.8 35 5.3 41.6
08:15 1018 30.06 848 25.04 21.6 70.9 34 5.2 41.4
08:20 1018 30.06 848 25.04 21.9 71.4 35 6 42.9
08:25 1018 30.06 848 25.04 22.2 71.9 34 5.9 42.7
08:30 1018 30.06 848 25.04 22.8 73 35 6.8 44.3
08:35 1018 30.06 848 25.04 22.7 72.9 35 6.6 43.9
08:40 1018 30.06 848 25.04 23.1 73.5 34 6.6 43.9
08:45 1018 30.06 848 25.04 22.8 73.1 34 6.3 43.3
08:50 1018 30.06 848 25.04 23 73.4 34 6.5 43.7
08:55 1018 30.06 848 25.04 23.5 74.4 33 6.3 43.4
09:00 1018 30.06 848 25.04 23.9 75.1 33 6.8 44.2
09:05 1018 30.06 848 25.04 24.3 75.8 31 6.6 43.8
09:10 1018 30.06 848 25.04 24.6 76.2 30 6.3 43.3
09:15 1018 30.06 848 25.04 24.7 76.5 31 6.5 43.7
09:20 1018 30.06 848 25.04 25.3 77.6 30 6.8 44.2
09:25 1018 30.06 848 25.04 24.5 76.1 31 6.6 43.9
09:30 1018 30.06 848 25.04 24.3 75.8 31 6.2 43.2
09:35 1018 30.06 848 25.04 24.6 76.3 30 6 42.8
09:40 1018 30.06 847 25.01 25 77 30 6.2 43.2
09:45 1018 30.06 847 25.01 25.6 78.1 29 6.5 43.6
09:50 1018 30.06 847 25.01 26.1 79.1 28 6.6 43.9
09:55 1018 30.06 847 25.01 27 80.5 29 7.5 45.5
10:00 1018 30.06 847 25.01 27.5 81.5 25 5.9 42.7
10:05 1018 30.06 847 25.01 27.9 82.3 25 6.5 43.7
10:10 1018 30.06 847 25.01 28 82.4 25 6.2 43.2
10:15 1018 30.06 847 25.01 28 82.4 24 6.1 43
10:20 1018 30.06 847 25.01 28.2 82.7 24 6.3 43.3
10:25 1018 30.06 847 25.01 28.6 83.5 24 6.6 43.9
10:30 1018 30.06 847 25.01 29.2 84.5 24 7.1 44.7
10:35 1018 30.06 847 25.01 29.8 85.7 23 6.9 44.4
10:40 1018 30.06 847 25.01 30.1 86.1 22 6.5 43.7
10:45 1018 30.06 847 25.01 29.9 85.7 22 5.9 42.6
10:50 1017 30.03 847 25.01 29.8 85.7 22 6.1 42.9
10:55 1017 30.03 847 25.01 29.9 85.9 22 6.2 43.1
11:00 1017 30.03 847 25.01 30.4 86.6 19 4.8 40.7
11:05 1017 30.03 847 25.01 31 87.7 18 4.5 40
11:10 1017 30.03 847 25.01 31.8 89.2 18 5.3 41.5
11:15 1017 30.03 847 25.01 31.4 88.6 19 5.1 41.1
11:20 1017 30.03 846 24.98 31.6 88.9 19 5.4 41.8
11:25 1017 30.03 846 24.98 31.6 88.9 20 6.6 43.8
11:30 1017 30.03 846 24.98 31.8 89.2 19 6 42.8
11:35 1017 30.03 846 24.98 31.9 89.5 20 6.2 43.2
11:40 1017 30.03 846 24.98 32 89.6 18 5 40.9
11:45 1017 30.03 846 24.98 31.7 89.1 18 5.2 41.4
11:50 1017 30.03 846 24.98 31.2 88.1 17 3.9 38.9
11:55 1017 30.03 846 24.98 31.7 89.1 18 4.6 40.4
12:00 1017 30.03 846 24.98 32.5 90.5 18 5.7 42.2
12:05 1017 30.03 846 24.98 33 91.5 16 4.6 40.4
12:10 1017 30.03 846 24.98 33.2 91.8 16 4.3 39.7
12:15 1017 30.03 846 24.98 32.9 91.2 16 4.6 40.2
12:20 1017 30.03 846 24.98 33.2 91.7 18 5.8 42.4
12:25 1017 30.03 846 24.98 33.6 92.5 17 5.7 42.2
12:30 1017 30.03 846 24.98 33.7 92.7 14 3.1 37.5
12:35 1017 30.03 846 24.98 33.8 92.8 15 3.6 38.5
12:40 1017 30.03 846 24.98 33.3 91.9 14 2.9 37.2
12:45 1017 30.03 846 24.98 33 91.3 14 2.7 36.9
12:50 1017 30.03 846 24.98 32.9 91.2 14 2.6 36.7
12:55 1017 30.03 846 24.98 33.6 92.4 12 1 33.8
13:00 1016 30 846 24.98 34.2 93.5 12 1.4 34.5
13:05 1016 30 846 24.98 33.7 92.7 14 3 37.4
13:10 1016 30 846 24.98 33.9 93.1 12 1.5 34.7
13:15 1016 30 846 24.98 34 93.2 13 1.9 35.4
13:20 1016 30 846 24.98 33.8 92.9 12 1 33.8
13:25 1016 30 845 24.95 33.9 93 13 1.7 35.1
13:30 1016 30 845 24.95 34.1 93.3 13 1.7 35.1
13:35 1016 30 845 24.95 34.6 94.2 13 2.3 36.2
13:40 1016 30 845 24.95 34.4 94 13 2.1 35.8
13:45 1016 30 845 24.95 34.8 94.7 13 2.4 36.4
13:50 1016 30 845 24.95 34.6 94.3 12 1.9 35.5
13:55 1016 30 845 24.95 34.4 93.9 13 2.4 36.4
14:00 1016 30 845 24.95 34.9 94.7 12 1.9 35.4
14:05 1016 30 845 24.95 34.3 93.7 13 2.5 36.5
14:10 1016 30 845 24.95 34.6 94.2 13 2.1 35.7
14:15 1016 30 845 24.95 34.8 94.6 12 2.1 35.8
14:20 1016 30 845 24.95 34.6 94.3 13 2.5 36.5
14:25 1016 30 845 24.95 35 95.1 13 2.8 37.1
14:30 1016 30 845 24.95 35.9 96.7 13 3.4 38.2
14:35 1016 30 845 24.95 36 96.7 13 3.3 37.9
14:40 1015 29.97 845 24.95 35.2 95.4 15 5.1 41.2
14:45 1015 29.97 845 24.95 34.9 94.9 13 2.5 36.4
14:50 1015 29.97 844 24.92 35 95 13 2.9 37.2
14:55 1015 29.97 844 24.92 35 95 13 3.1 37.6
15:00 1015 29.97 844 24.92 35 94.9 13 2.6 36.8
15:05 1015 29.97 844 24.92 35 94.9 12 2 35.5
15:10 1015 29.97 844 24.92 35.5 95.8 12 2.4 36.3
15:15 1015 29.97 844 24.92 36 96.8 13 3.3 38
15:20 1015 29.97 844 24.92 36 96.9 12 2.5 36.5
15:25 1015 29.97 844 24.92 35.6 96.2 12 2.3 36.1
15:30 1015 29.97 844 24.92 36.2 97.2 12 3 37.4
15:35 1015 29.97 844 24.92 36.5 97.6 12 3 37.4
15:40 1015 29.97 844 24.92 35.6 96.1 12 2.4 36.4
15:45 1015 29.97 844 24.92 35.1 95.2 13 2.8 37
15:50 1015 29.97 844 24.92 35 95 14 3.9 39
15:55 1015 29.97 844 24.92 35.8 96.5 12 2.8 37
16:00 1015 29.97 844 24.92 36.2 97.1 12 3.1 37.5
16:05 1015 29.97 844 24.92 35 95.1 12 2.4 36.3
16:10 1015 29.97 844 24.92 34.3 93.8 13 2.1 35.7
16:15 1015 29.97 844 24.92 34.7 94.5 13 2.5 36.6
16:20 1015 29.97 844 24.92 35.1 95.2 13 2.9 37.2
16:25 1014 29.94 844 24.92 35.6 96 13 3.3 37.9
16:30 1014 29.94 844 24.92 35.6 96.1 12 2.8 37.1
16:35 1014 29.94 844 24.92 35.6 96 12 2.6 36.7
16:40 1014 29.94 843 24.89 34.6 94.2 13 2.7 36.8
16:45 1014 29.94 843 24.89 34.9 94.9 13 2.9 37.3
16:50 1014 29.94 843 24.89 35.8 96.5 12 3 37.4
16:55 1014 29.94 843 24.89 35.3 95.5 13 2.9 37.2
17:00 1014 29.94 843 24.89 34.6 94.3 14 3.4 38.1
17:05 1014 29.94 843 24.89 34.5 94.1 13 2.5 36.5
17:10 1014 29.94 843 24.89 34.5 94 13 2.7 36.9
17:15 1014 29.94 843 24.89 34.4 93.9 13 3 37.4
17:20 1014 29.94 843 24.89 34.4 94 13 2.4 36.4
17:25 1014 29.94 843 24.89 34.7 94.4 14 3.8 38.9
17:30 1014 29.94 843 24.89 34.8 94.7 15 4.4 40
17:35 1014 29.94 843 24.89 34.9 94.8 22 10.5 51
17:40 1014 29.94 843 24.89 34.5 94 14 3.3 38
17:45 1014 29.94 843 24.89 34.4 94 14 3.1 37.5
17:50 1014 29.94 843 24.89 35.2 95.3 13 2.5 36.6
17:55 1014 29.94 843 24.89 35.3 95.5 13 3.3 37.9
18:00 1014 29.94 843 24.89 34.9 94.8 14 3.6 38.4
18:05 1014 29.94 843 24.89 34.7 94.5 13 3 37.3
18:10 1014 29.94 843 24.89 35.3 95.6 13 3 37.4
18:15 1014 29.94 843 24.89 35.6 96 11 1.7 35
18:20 1014 29.94 843 24.89 35.4 95.7 12 2.6 36.7
18:25 1014 29.94 843 24.89 34.8 94.7 13 2.3 36.2
18:30 1014 29.94 843 24.89 34.5 94 20 8.9 47.9
18:35 1014 29.94 843 24.89 33.4 92.1 21 8.2 46.8
18:40 1014 29.94 843 24.89 33.1 91.6 19 6.7 44.1
18:45 1014 29.94 843 24.89 33.4 92.2 17 5.7 42.3
18:50 1014 29.94 843 24.89 34.2 93.5 13 2.4 36.3
18:55 1013 29.91 843 24.89 34.6 94.3 14 3.8 38.9
19:00 1013 29.91 843 24.89 34.6 94.4 13 3 37.5
19:05 1013 29.91 843 24.89 35.1 95.1 14 3.9 39
19:10 1013 29.91 843 24.89 34.9 94.8 14 4 39.2
19:15 1014 29.94 843 24.89 34.5 94.2 14 3.9 39
19:20 1013 29.91 843 24.89 34.2 93.5 21 9.3 48.7
19:25 1013 29.91 843 24.89 32.7 90.9 25 10.3 50.5
19:30 1014 29.94 843 24.89 32 89.5 27 11.1 52
19:35 1014 29.94 843 24.89 31.6 88.9 25 9.7 49.4
19:40 1013 29.91 843 24.89 31.5 88.6 28 10.9 51.5
19:45 1014 29.94 843 24.89 31.5 88.6 25 9.3 48.8
19:50 1013 29.91 843 24.89 31.6 88.9 24 9.2 48.6
19:55 1013 29.91 843 24.89 31.5 88.6 27 10.4 50.7
20:00 1013 29.91 843 24.89 30.9 87.6 30 11.5 52.8
20:05 1013 29.91 843 24.89 30.4 86.7 27 9.7 49.4
20:10 1013 29.91 843 24.89 29.8 85.6 29 10.1 50.2
20:15 1013 29.91 843 24.89 29.4 84.8 29 9.7 49.4
20:20 1013 29.91 843 24.89 29.1 84.4 28 9.3 48.8
20:25 1013 29.91 843 24.89 28.7 83.7 29 9.1 48.3
20:30 1013 29.91 843 24.89 28.4 83.1 30 9.6 49.2
20:35 1013 29.91 843 24.89 28.1 82.7 29 8.9 47.9
20:40 1013 29.91 843 24.89 27.7 81.9 29 8.4 47.1
20:45 1013 29.91 843 24.89 27.5 81.5 31 9.1 48.3
20:50 1013 29.91 843 24.89 27.1 80.7 30 8.3 47
20:55 1013 29.91 842 24.86 26.9 80.5 30 8.1 46.6
21:00 1013 29.91 843 24.89 26.7 80.1 31 8.4 47.1
21:05 1013 29.91 842 24.86 26.6 80 30 8 46.3
21:10 1013 29.91 842 24.86 26.5 79.7 29 7.4 45.4
21:15 1013 29.91 843 24.89 26.5 79.7 32 8.8 47.9
21:20 1013 29.91 843 24.89 26.3 79.3 33 8.9 48
21:25 1013 29.91 843 24.89 26.1 79 30 7.3 45.1
21:30 1013 29.91 843 24.89 25.9 78.7 30 7.4 45.3
21:35 1014 29.94 843 24.89 25.8 78.4 30 7.3 45.1
21:40 1014 29.94 843 24.89 25.8 78.4 30 7 44.5
21:45 1014 29.94 843 24.89 25.8 78.4 28 6.1 43
21:50 1014 29.94 843 24.89 25.9 78.5 27 5.8 42.4
21:55 1014 29.94 843 24.89 26 78.7 27 5.9 42.6
22:00 1014 29.94 843 24.89 26 78.7 25 4.8 40.6
22:05 1014 29.94 843 24.89 25.9 78.6 26 5.4 41.7
22:10 1014 29.94 843 24.89 25.4 77.6 27 5.4 41.7
22:15 1014 29.94 843 24.89 25 77.1 28 5.5 42
22:20 1014 29.94 843 24.89 24.9 76.8 27 4.9 40.9
22:25 1014 29.94 843 24.89 24.8 76.6 29 5.6 42
22:30 1014 29.94 843 24.89 24.8 76.6 28 5.4 41.7
22:35 1014 29.94 843 24.89 25 77 28 5.4 41.7
22:40 1013 29.91 843 24.89 25 77.1 27 5.1 41.1
22:45 1013 29.91 843 24.89 25.6 78 26 5 41
22:50 1013 29.91 843 24.89 25.5 77.9 27 5.2 41.3
22:55 1013 29.91 843 24.89 25.2 77.4 29 6.2 43.1
23:00 1013 29.91 843 24.89 24.7 76.4 28 5.4 41.7
23:05 1013 29.91 843 24.89 24.9 76.8 27 4.8 40.7
23:10 1013 29.91 842 24.86 25.1 77.1 28 5.4 41.7
23:15 1013 29.91 842 24.86 25.1 77.1 27 4.9 40.7
23:20 1013 29.91 842 24.86 25 76.9 28 5.4 41.6
23:25 1013 29.91 842 24.86 24.6 76.2 27 4.5 40.2
23:30 1013 29.91 843 24.89 25 77.1 26 4.3 39.8
23:35 1014 29.94 843 24.89 24.7 76.4 30 6.2 43.2
23:40 1014 29.94 843 24.89 23.9 75.1 31 5.9 42.6
23:45 1014 29.94 843 24.89 23.9 75 29 4.8 40.7
23:50 1014 29.94 843 24.89 24.2 75.5 30 5.9 42.5
23:55 1014 29.94 843 24.89 23.7 74.7 30 5.6 42
24:00 1013 29.91 843 24.89 23.4 74.2 33 6.5 43.7